sensor_id;sensor_type;location;lat;lon;timestamp;pressure;altitude;pressure_sealevel;temperature;humidity
49759;BME280;70329;45.524;10.194;2023-07-29T00:01:43;99919.84;;;23.43;69.01
49759;BME280;70329;45.524;10.194;2023-07-29T00:04:09;99907.41;;;23.40;68.40
49759;BME280;70329;45.524;10.194;2023-07-29T00:06:35;99908.59;;;23.39;68.22
49759;BME280;70329;45.524;10.194;2023-07-29T00:09:00;99918.47;;;23.37;68.48
49759;BME280;70329;45.524;10.194;2023-07-29T00:11:25;99914.53;;;23.38;68.41
49759;BME280;70329;45.524;10.194;2023-07-29T00:13:50;99921.66;;;23.35;68.44
49759;BME280;70329;45.524;10.194;2023-07-29T00:16:16;99911.19;;;23.32;68.16
49759;BME280;70329;45.524;10.194;2023-07-29T00:18:42;99912.63;;;23.23;68.79
49759;BME280;70329;45.524;10.194;2023-07-29T00:21:08;99909.88;;;23.26;68.18
49759;BME280;70329;45.524;10.194;2023-07-29T00:23:33;99907.47;;;23.25;68.86
49759;BME280;70329;45.524;10.194;2023-07-29T00:25:58;99903.19;;;23.31;67.99
49759;BME280;70329;45.524;10.194;2023-07-29T00:28:24;99901.50;;;23.26;67.74
49759;BME280;70329;45.524;10.194;2023-07-29T00:30:49;99907.28;;;23.17;68.74
49759;BME280;70329;45.524;10.194;2023-07-29T00:33:14;99913.34;;;23.19;68.60
49759;BME280;70329;45.524;10.194;2023-07-29T00:35:40;99907.75;;;23.19;68.40
49759;BME280;70329;45.524;10.194;2023-07-29T00:38:05;99904.88;;;23.16;69.20
49759;BME280;70329;45.524;10.194;2023-07-29T00:40:35;99905.97;;;23.11;68.86
49759;BME280;70329;45.524;10.194;2023-07-29T00:43:00;99905.47;;;23.06;69.75
49759;BME280;70329;45.524;10.194;2023-07-29T00:45:26;99910.66;;;23.07;69.47
49759;BME280;70329;45.524;10.194;2023-07-29T00:47:54;99912.66;;;23.07;69.34
49759;BME280;70329;45.524;10.194;2023-07-29T00:50:19;99917.59;;;23.13;68.93
49759;BME280;70329;45.524;10.194;2023-07-29T00:52:45;99915.16;;;23.12;68.98
49759;BME280;70329;45.524;10.194;2023-07-29T00:55:11;99922.56;;;23.04;69.78
49759;BME280;70329;45.524;10.194;2023-07-29T00:57:37;99915.28;;;23.00;69.79
49759;BME280;70329;45.524;10.194;2023-07-29T01:00:03;99924.84;;;22.99;69.65
49759;BME280;70329;45.524;10.194;2023-07-29T01:02:30;99924.84;;;22.99;69.38
49759;BME280;70329;45.524;10.194;2023-07-29T01:04:58;99918.09;;;23.00;69.28
49759;BME280;70329;45.524;10.194;2023-07-29T01:07:33;99923.19;;;22.98;69.60
49759;BME280;70329;45.524;10.194;2023-07-29T01:10:17;99919.16;;;22.95;69.57
49759;BME280;70329;45.524;10.194;2023-07-29T01:13:19;99917.09;;;22.92;69.65
49759;BME280;70329;45.524;10.194;2023-07-29T01:18:28;99915.56;;;22.95;69.04
49759;BME280;70329;45.524;10.194;2023-07-29T01:20:58;99921.06;;;22.91;69.08
49759;BME280;70329;45.524;10.194;2023-07-29T01:23:25;99915.59;;;22.79;70.01
49759;BME280;70329;45.524;10.194;2023-07-29T01:25:51;99912.91;;;22.83;69.86
49759;BME280;70329;45.524;10.194;2023-07-29T01:28:16;99916.50;;;22.83;69.67
49759;BME280;70329;45.524;10.194;2023-07-29T01:30:43;99907.31;;;22.83;69.95
49759;BME280;70329;45.524;10.194;2023-07-29T01:33:29;99901.91;;;22.74;70.07
49759;BME280;70329;45.524;10.194;2023-07-29T01:36:03;99895.72;;;22.65;70.35
49759;BME280;70329;45.524;10.194;2023-07-29T01:38:32;99896.88;;;22.64;69.92
49759;BME280;70329;45.524;10.194;2023-07-29T01:41:03;99901.28;;;22.65;69.02
49759;BME280;70329;45.524;10.194;2023-07-29T01:43:29;99888.50;;;22.64;69.24
49759;BME280;70329;45.524;10.194;2023-07-29T01:45:55;99888.41;;;22.60;69.32
49759;BME280;70329;45.524;10.194;2023-07-29T01:48:20;99895.72;;;22.65;69.48
49759;BME280;70329;45.524;10.194;2023-07-29T01:50:46;99890.50;;;22.64;69.30
49759;BME280;70329;45.524;10.194;2023-07-29T01:53:12;99899.66;;;22.64;69.50
49759;BME280;70329;45.524;10.194;2023-07-29T01:55:38;99891.09;;;22.57;69.56
49759;BME280;70329;45.524;10.194;2023-07-29T01:58:03;99887.88;;;22.55;69.66
49759;BME280;70329;45.524;10.194;2023-07-29T02:00:28;99902.66;;;22.55;69.73
49759;BME280;70329;45.524;10.194;2023-07-29T02:02:54;99898.59;;;22.37;70.59
49759;BME280;70329;45.524;10.194;2023-07-29T02:05:19;99902.72;;;22.43;70.27
49759;BME280;70329;45.524;10.194;2023-07-29T02:07:45;99899.75;;;22.52;69.91
49759;BME280;70329;45.524;10.194;2023-07-29T02:10:10;99905.34;;;22.52;69.90
49759;BME280;70329;45.524;10.194;2023-07-29T02:12:35;99906.22;;;22.56;70.11
49759;BME280;70329;45.524;10.194;2023-07-29T02:15:01;99908.56;;;22.54;70.69
49759;BME280;70329;45.524;10.194;2023-07-29T02:17:26;99919.38;;;22.55;71.04
49759;BME280;70329;45.524;10.194;2023-07-29T02:19:52;99917.38;;;22.56;71.19
49759;BME280;70329;45.524;10.194;2023-07-29T02:22:17;99913.97;;;22.62;70.85
49759;BME280;70329;45.524;10.194;2023-07-29T02:24:44;99912.00;;;22.63;70.81
49759;BME280;70329;45.524;10.194;2023-07-29T02:27:10;99918.56;;;22.55;71.18
49759;BME280;70329;45.524;10.194;2023-07-29T02:29:35;99915.69;;;22.51;71.08
49759;BME280;70329;45.524;10.194;2023-07-29T02:32:01;99917.41;;;22.40;71.67
49759;BME280;70329;45.524;10.194;2023-07-29T02:34:27;99920.63;;;22.42;71.40
49759;BME280;70329;45.524;10.194;2023-07-29T02:36:52;99920.00;;;22.49;71.12
49759;BME280;70329;45.524;10.194;2023-07-29T02:39:18;99917.03;;;22.42;71.58
49759;BME280;70329;45.524;10.194;2023-07-29T02:41:43;99916.41;;;22.48;71.42
49759;BME280;70329;45.524;10.194;2023-07-29T02:44:08;99925.16;;;22.47;71.54
49759;BME280;70329;45.524;10.194;2023-07-29T02:46:34;99910.38;;;22.46;71.52
49759;BME280;70329;45.524;10.194;2023-07-29T02:48:59;99923.53;;;22.46;71.80
49759;BME280;70329;45.524;10.194;2023-07-29T02:51:24;99922.81;;;22.49;70.82
49759;BME280;70329;45.524;10.194;2023-07-29T02:53:50;99928.09;;;22.54;70.68
49759;BME280;70329;45.524;10.194;2023-07-29T02:56:15;99928.09;;;22.54;70.39
49759;BME280;70329;45.524;10.194;2023-07-29T02:58:40;99926.94;;;22.55;70.36
49759;BME280;70329;45.524;10.194;2023-07-29T03:01:06;99920.56;;;22.54;70.18
49759;BME280;70329;45.524;10.194;2023-07-29T03:03:32;99919.63;;;22.50;70.32
49759;BME280;70329;45.524;10.194;2023-07-29T03:06:07;99917.31;;;22.52;70.09
49759;BME280;70329;45.524;10.194;2023-07-29T03:08:34;99933.69;;;22.54;70.23
49759;BME280;70329;45.524;10.194;2023-07-29T03:11:04;99919.03;;;22.41;71.03
49759;BME280;70329;45.524;10.194;2023-07-29T03:13:30;99923.97;;;22.48;70.92
49759;BME280;70329;45.524;10.194;2023-07-29T03:16:13;99922.91;;;22.52;70.93
49759;BME280;70329;45.524;10.194;2023-07-29T03:18:40;99925.94;;;22.47;71.12
49759;BME280;70329;45.524;10.194;2023-07-29T03:21:06;99929.00;;;22.42;71.36
49759;BME280;70329;45.524;10.194;2023-07-29T03:23:32;99936.66;;;22.45;71.06
49759;BME280;70329;45.524;10.194;2023-07-29T03:25:58;99942.34;;;22.49;70.55
49759;BME280;70329;45.524;10.194;2023-07-29T03:28:25;99941.63;;;22.52;70.35
49759;BME280;70329;45.524;10.194;2023-07-29T03:30:51;99939.56;;;22.49;70.68
49759;BME280;70329;45.524;10.194;2023-07-29T03:33:16;99941.34;;;22.41;71.33
49759;BME280;70329;45.524;10.194;2023-07-29T03:35:42;99935.41;;;22.43;71.31
49759;BME280;70329;45.524;10.194;2023-07-29T03:38:10;99931.09;;;22.45;71.05
49759;BME280;70329;45.524;10.194;2023-07-29T03:40:36;99937.47;;;22.46;70.87
49759;BME280;70329;45.524;10.194;2023-07-29T03:43:01;99933.16;;;22.48;70.37
49759;BME280;70329;45.524;10.194;2023-07-29T03:45:26;99937.91;;;22.48;70.35
49759;BME280;70329;45.524;10.194;2023-07-29T03:47:52;99930.47;;;22.52;70.08
49759;BME280;70329;45.524;10.194;2023-07-29T03:50:17;99942.16;;;22.42;70.41
49759;BME280;70329;45.524;10.194;2023-07-29T03:52:42;99949.47;;;22.46;70.31
49759;BME280;70329;45.524;10.194;2023-07-29T03:55:08;99949.78;;;22.45;70.10
49759;BME280;70329;45.524;10.194;2023-07-29T03:57:34;99945.13;;;22.33;70.82
49759;BME280;70329;45.524;10.194;2023-07-29T03:59:59;99951.06;;;22.32;71.14
49759;BME280;70329;45.524;10.194;2023-07-29T04:02:24;99952.50;;;22.26;71.77
49759;BME280;70329;45.524;10.194;2023-07-29T04:04:50;99951.34;;;22.27;71.42
49759;BME280;70329;45.524;10.194;2023-07-29T04:07:15;99947.28;;;22.24;71.64
49759;BME280;70329;45.524;10.194;2023-07-29T04:09:41;99950.34;;;22.19;71.78
49759;BME280;70329;45.524;10.194;2023-07-29T04:12:08;99956.81;;;22.23;71.22
49759;BME280;70329;45.524;10.194;2023-07-29T04:14:33;99958.63;;;22.31;70.62
49759;BME280;70329;45.524;10.194;2023-07-29T04:16:59;99952.59;;;22.29;70.66
49759;BME280;70329;45.524;10.194;2023-07-29T04:19:24;99959.09;;;22.33;70.65
49759;BME280;70329;45.524;10.194;2023-07-29T04:21:49;99955.19;;;22.22;70.91
49759;BME280;70329;45.524;10.194;2023-07-29T04:24:16;99952.41;;;22.38;70.17
49759;BME280;70329;45.524;10.194;2023-07-29T04:26:41;99947.19;;;22.36;70.30
49759;BME280;70329;45.524;10.194;2023-07-29T04:29:06;99951.06;;;22.32;70.45
49759;BME280;70329;45.524;10.194;2023-07-29T04:31:32;99968.34;;;22.37;70.30
49759;BME280;70329;45.524;10.194;2023-07-29T04:33:57;99966.53;;;22.45;69.79
49759;BME280;70329;45.524;10.194;2023-07-29T04:36:22;99968.28;;;22.49;69.69
49759;BME280;70329;45.524;10.194;2023-07-29T04:38:48;99965.94;;;22.51;69.58
49759;BME280;70329;45.524;10.194;2023-07-29T04:41:13;99966.03;;;22.55;69.34
49759;BME280;70329;45.524;10.194;2023-07-29T04:43:38;99972.25;;;22.64;69.03
49759;BME280;70329;45.524;10.194;2023-07-29T04:46:07;99963.88;;;22.64;69.01
49759;BME280;70329;45.524;10.194;2023-07-29T04:48:33;99966.66;;;22.64;69.07
49759;BME280;70329;45.524;10.194;2023-07-29T04:50:59;99962.13;;;22.59;68.51
49759;BME280;70329;45.524;10.194;2023-07-29T04:53:24;99966.47;;;22.57;68.78
49759;BME280;70329;45.524;10.194;2023-07-29T04:55:49;99971.84;;;22.34;69.59
49759;BME280;70329;45.524;10.194;2023-07-29T04:58:15;99963.75;;;22.45;69.14
49759;BME280;70329;45.524;10.194;2023-07-29T05:00:40;99967.09;;;22.35;69.68
49759;BME280;70329;45.524;10.194;2023-07-29T05:03:05;99975.38;;;22.47;69.38
49759;BME280;70329;45.524;10.194;2023-07-29T05:05:32;99970.06;;;22.57;69.08
49759;BME280;70329;45.524;10.194;2023-07-29T05:07:57;99970.47;;;22.72;68.62
49759;BME280;70329;45.524;10.194;2023-07-29T05:10:22;99982.94;;;22.62;69.24
49759;BME280;70329;45.524;10.194;2023-07-29T05:12:48;99983.31;;;22.76;68.76
49759;BME280;70329;45.524;10.194;2023-07-29T05:15:13;99971.69;;;22.90;68.66
49759;BME280;70329;45.524;10.194;2023-07-29T05:17:39;99984.63;;;23.13;68.04
49759;BME280;70329;45.524;10.194;2023-07-29T05:20:05;99989.53;;;23.36;66.70
49759;BME280;70329;45.524;10.194;2023-07-29T05:22:30;99995.38;;;23.46;66.15
49759;BME280;70329;45.524;10.194;2023-07-29T05:24:56;99993.28;;;23.59;65.47
49759;BME280;70329;45.524;10.194;2023-07-29T05:27:21;99991.34;;;23.82;64.55
49759;BME280;70329;45.524;10.194;2023-07-29T05:29:46;99992.25;;;24.24;62.91
49759;BME280;70329;45.524;10.194;2023-07-29T05:32:12;99999.09;;;24.50;62.12
49759;BME280;70329;45.524;10.194;2023-07-29T05:34:37;99989.38;;;25.12;59.04
49759;BME280;70329;45.524;10.194;2023-07-29T05:37:03;99989.28;;;24.82;59.47
49759;BME280;70329;45.524;10.194;2023-07-29T05:39:28;99996.78;;;24.32;61.79
49759;BME280;70329;45.524;10.194;2023-07-29T05:41:54;99986.47;;;23.98;62.99
49759;BME280;70329;45.524;10.194;2023-07-29T05:44:19;99977.84;;;23.84;64.00
49759;BME280;70329;45.524;10.194;2023-07-29T05:46:45;99981.56;;;23.92;63.83
49759;BME280;70329;45.524;10.194;2023-07-29T05:49:10;99973.47;;;24.48;62.60
49759;BME280;70329;45.524;10.194;2023-07-29T05:51:36;99983.75;;;26.31;55.70
49759;BME280;70329;45.524;10.194;2023-07-29T05:54:01;99981.94;;;27.44;52.40
49759;BME280;70329;45.524;10.194;2023-07-29T05:56:26;99978.31;;;28.65;47.28
49759;BME280;70329;45.524;10.194;2023-07-29T05:58:51;99972.69;;;28.79;46.42
49759;BME280;70329;45.524;10.194;2023-07-29T06:01:17;99976.22;;;28.16;48.18
49759;BME280;70329;45.524;10.194;2023-07-29T06:03:42;99978.28;;;28.44;47.96
49759;BME280;70329;45.524;10.194;2023-07-29T06:06:08;99973.47;;;29.15;46.37
49759;BME280;70329;45.524;10.194;2023-07-29T06:08:33;99974.44;;;32.51;38.91
49759;BME280;70329;45.524;10.194;2023-07-29T06:11:00;99970.91;;;36.08;32.63
49759;BME280;70329;45.524;10.194;2023-07-29T06:13:25;99981.66;;;37.74;29.78
49759;BME280;70329;45.524;10.194;2023-07-29T06:15:50;99987.00;;;38.68;28.05
49759;BME280;70329;45.524;10.194;2023-07-29T06:18:16;99985.16;;;39.68;27.05
49759;BME280;70329;45.524;10.194;2023-07-29T06:20:41;99993.50;;;40.35;25.66
49759;BME280;70329;45.524;10.194;2023-07-29T06:23:08;99991.22;;;38.54;27.81
49759;BME280;70329;45.524;10.194;2023-07-29T06:25:33;100004.06;;;34.80;33.76
49759;BME280;70329;45.524;10.194;2023-07-29T06:27:58;100008.56;;;37.17;30.83
49759;BME280;70329;45.524;10.194;2023-07-29T06:30:24;100001.28;;;38.06;28.99
49759;BME280;70329;45.524;10.194;2023-07-29T06:32:49;100006.06;;;35.60;32.10
49759;BME280;70329;45.524;10.194;2023-07-29T06:35:15;100011.97;;;33.12;36.34
49759;BME280;70329;45.524;10.194;2023-07-29T06:37:40;100010.91;;;31.54;38.85
49759;BME280;70329;45.524;10.194;2023-07-29T06:40:06;100014.31;;;30.22;42.58
49759;BME280;70329;45.524;10.194;2023-07-29T06:42:31;100017.38;;;29.37;44.61
49759;BME280;70329;45.524;10.194;2023-07-29T06:44:57;100016.53;;;28.59;46.17
49759;BME280;70329;45.524;10.194;2023-07-29T06:47:22;100024.38;;;27.93;48.55
49759;BME280;70329;45.524;10.194;2023-07-29T06:49:47;100020.59;;;27.61;49.56
49759;BME280;70329;45.524;10.194;2023-07-29T06:52:13;100024.44;;;27.39;52.00
49759;BME280;70329;45.524;10.194;2023-07-29T06:54:38;100020.00;;;26.83;55.22
49759;BME280;70329;45.524;10.194;2023-07-29T06:57:04;100020.75;;;26.07;56.47
49759;BME280;70329;45.524;10.194;2023-07-29T06:59:29;100015.84;;;26.33;55.99
49759;BME280;70329;45.524;10.194;2023-07-29T07:01:54;100009.25;;;26.52;55.24
49759;BME280;70329;45.524;10.194;2023-07-29T07:04:23;100025.53;;;26.76;56.08
49759;BME280;70329;45.524;10.194;2023-07-29T07:06:48;100022.44;;;26.85;54.78
49759;BME280;70329;45.524;10.194;2023-07-29T07:09:13;100018.41;;;26.86;54.42
49759;BME280;70329;45.524;10.194;2023-07-29T07:11:39;100012.38;;;26.84;55.13
49759;BME280;70329;45.524;10.194;2023-07-29T07:14:04;100012.00;;;26.85;54.54
49759;BME280;70329;45.524;10.194;2023-07-29T07:16:29;100012.78;;;26.86;56.88
49759;BME280;70329;45.524;10.194;2023-07-29T07:18:56;100011.63;;;26.50;58.21
49759;BME280;70329;45.524;10.194;2023-07-29T07:21:21;100021.25;;;25.82;60.76
49759;BME280;70329;45.524;10.194;2023-07-29T07:23:49;100020.75;;;25.77;60.35
49759;BME280;70329;45.524;10.194;2023-07-29T07:26:15;100019.75;;;25.92;60.86
49759;BME280;70329;45.524;10.194;2023-07-29T07:28:40;100020.41;;;26.12;61.09
49759;BME280;70329;45.524;10.194;2023-07-29T07:31:05;100030.19;;;26.25;62.11
49759;BME280;70329;45.524;10.194;2023-07-29T07:33:31;100023.91;;;26.35;62.20
49759;BME280;70329;45.524;10.194;2023-07-29T07:35:56;100026.78;;;26.42;61.23
49759;BME280;70329;45.524;10.194;2023-07-29T07:38:21;100033.28;;;26.49;61.22
49759;BME280;70329;45.524;10.194;2023-07-29T07:40:54;100027.34;;;26.54;61.71
49759;BME280;70329;45.524;10.194;2023-07-29T07:43:20;100025.75;;;26.57;60.37
49759;BME280;70329;45.524;10.194;2023-07-29T07:45:45;100024.38;;;26.44;60.73
49759;BME280;70329;45.524;10.194;2023-07-29T07:48:10;100021.81;;;26.65;61.11
49759;BME280;70329;45.524;10.194;2023-07-29T07:50:38;100019.38;;;26.60;62.35
49759;BME280;70329;45.524;10.194;2023-07-29T07:53:03;100015.00;;;27.10;60.10
49759;BME280;70329;45.524;10.194;2023-07-29T07:55:30;100019.03;;;27.12;59.69
49759;BME280;70329;45.524;10.194;2023-07-29T07:57:56;100025.03;;;27.65;58.42
49759;BME280;70329;45.524;10.194;2023-07-29T08:00:21;100028.47;;;27.38;59.46
49759;BME280;70329;45.524;10.194;2023-07-29T08:02:46;100032.94;;;27.42;58.79
49759;BME280;70329;45.524;10.194;2023-07-29T08:05:12;100026.97;;;27.51;57.69
49759;BME280;70329;45.524;10.194;2023-07-29T08:07:37;100026.41;;;27.31;59.30
49759;BME280;70329;45.524;10.194;2023-07-29T08:10:02;100036.06;;;27.30;60.39
49759;BME280;70329;45.524;10.194;2023-07-29T08:12:28;100030.03;;;27.32;60.01
49759;BME280;70329;45.524;10.194;2023-07-29T08:14:53;100017.59;;;27.33;59.88
49759;BME280;70329;45.524;10.194;2023-07-29T08:17:19;100018.50;;;27.51;60.72
49759;BME280;70329;45.524;10.194;2023-07-29T08:19:44;100021.09;;;27.81;58.30
49759;BME280;70329;45.524;10.194;2023-07-29T08:22:09;100022.75;;;27.92;60.27
49759;BME280;70329;45.524;10.194;2023-07-29T08:24:34;100015.16;;;28.00;60.03
49759;BME280;70329;45.524;10.194;2023-07-29T08:27:00;100014.16;;;27.60;60.31
49759;BME280;70329;45.524;10.194;2023-07-29T08:29:26;100013.56;;;28.02;59.49
49759;BME280;70329;45.524;10.194;2023-07-29T08:31:51;100013.22;;;28.14;59.40
49759;BME280;70329;45.524;10.194;2023-07-29T08:34:17;100005.59;;;28.25;57.64
49759;BME280;70329;45.524;10.194;2023-07-29T08:36:42;100015.59;;;28.09;59.46
49759;BME280;70329;45.524;10.194;2023-07-29T08:39:07;100012.69;;;27.95;59.54
49759;BME280;70329;45.524;10.194;2023-07-29T08:41:40;100011.66;;;28.27;57.33
49759;BME280;70329;45.524;10.194;2023-07-29T08:44:11;100005.28;;;28.62;56.58
49759;BME280;70329;45.524;10.194;2023-07-29T08:46:38;100006.47;;;28.47;55.82
49759;BME280;70329;45.524;10.194;2023-07-29T08:49:04;100002.44;;;28.52;55.74
49759;BME280;70329;45.524;10.194;2023-07-29T08:51:31;100005.56;;;28.15;55.84
49759;BME280;70329;45.524;10.194;2023-07-29T08:53:58;99999.22;;;28.57;52.82
49759;BME280;70329;45.524;10.194;2023-07-29T08:56:24;100002.03;;;28.50;55.58
49759;BME280;70329;45.524;10.194;2023-07-29T08:58:50;100009.34;;;28.72;53.94
49759;BME280;70329;45.524;10.194;2023-07-29T09:01:16;100004.03;;;28.28;57.16
49759;BME280;70329;45.524;10.194;2023-07-29T09:03:42;100004.88;;;28.50;57.23
49759;BME280;70329;45.524;10.194;2023-07-29T09:06:07;100003.22;;;28.35;56.97
49759;BME280;70329;45.524;10.194;2023-07-29T09:08:34;100005.63;;;28.40;57.49
49759;BME280;70329;45.524;10.194;2023-07-29T09:11:00;100008.94;;;28.63;58.62
49759;BME280;70329;45.524;10.194;2023-07-29T09:13:25;100005.31;;;28.69;56.05
49759;BME280;70329;45.524;10.194;2023-07-29T09:15:54;99990.81;;;28.74;52.91
49759;BME280;70329;45.524;10.194;2023-07-29T09:18:21;99989.63;;;28.82;53.29
49759;BME280;70329;45.524;10.194;2023-07-29T09:20:48;99989.59;;;28.89;54.51
49759;BME280;70329;45.524;10.194;2023-07-29T09:23:14;99985.19;;;28.78;54.94
49759;BME280;70329;45.524;10.194;2023-07-29T09:25:40;99989.63;;;28.72;54.96
49759;BME280;70329;45.524;10.194;2023-07-29T09:28:19;99988.41;;;28.76;54.12
49759;BME280;70329;45.524;10.194;2023-07-29T09:30:45;99983.97;;;28.97;55.16
49759;BME280;70329;45.524;10.194;2023-07-29T09:33:11;99980.34;;;29.03;53.43
49759;BME280;70329;45.524;10.194;2023-07-29T09:35:38;99971.88;;;29.10;52.01
49759;BME280;70329;45.524;10.194;2023-07-29T09:38:07;99981.16;;;29.07;54.82
49759;BME280;70329;45.524;10.194;2023-07-29T09:43:02;99981.97;;;28.94;58.32
49759;BME280;70329;45.524;10.194;2023-07-29T09:45:29;99975.09;;;29.19;56.53
49759;BME280;70329;45.524;10.194;2023-07-29T09:47:56;99978.31;;;29.18;57.23
49759;BME280;70329;45.524;10.194;2023-07-29T09:50:26;99979.09;;;29.43;56.44
49759;BME280;70329;45.524;10.194;2023-07-29T09:52:54;99974.28;;;29.33;56.37
49759;BME280;70329;45.524;10.194;2023-07-29T09:55:23;99971.47;;;29.26;56.13
49759;BME280;70329;45.524;10.194;2023-07-29T09:57:59;99964.16;;;29.46;56.55
49759;BME280;70329;45.524;10.194;2023-07-29T10:00:31;99967.44;;;29.30;56.29
49759;BME280;70329;45.524;10.194;2023-07-29T10:02:58;99957.75;;;29.38;54.60
49759;BME280;70329;45.524;10.194;2023-07-29T10:05:26;99957.69;;;29.56;54.79
49759;BME280;70329;45.524;10.194;2023-07-29T10:07:52;99956.88;;;29.59;55.22
49759;BME280;70329;45.524;10.194;2023-07-29T10:10:19;99958.09;;;29.62;55.84
49759;BME280;70329;45.524;10.194;2023-07-29T10:12:49;99957.34;;;29.15;57.05
49759;BME280;70329;45.524;10.194;2023-07-29T10:15:15;99957.72;;;29.49;57.66
49759;BME280;70329;45.524;10.194;2023-07-29T10:17:40;99952.38;;;29.83;54.60
49759;BME280;70329;45.524;10.194;2023-07-29T10:20:08;99941.31;;;30.10;56.17
49759;BME280;70329;45.524;10.194;2023-07-29T10:22:39;99945.38;;;30.12;57.00
49759;BME280;70329;45.524;10.194;2023-07-29T10:25:18;99950.69;;;29.96;53.30
49759;BME280;70329;45.524;10.194;2023-07-29T10:28:03;99942.47;;;30.26;52.23
49759;BME280;70329;45.524;10.194;2023-07-29T10:30:30;99943.38;;;30.09;54.85
49759;BME280;70329;45.524;10.194;2023-07-29T10:32:58;99938.91;;;30.12;53.23
49759;BME280;70329;45.524;10.194;2023-07-29T10:35:24;99945.66;;;30.32;51.44
49759;BME280;70329;45.524;10.194;2023-07-29T10:37:50;99943.13;;;30.48;51.66
49759;BME280;70329;45.524;10.194;2023-07-29T10:40:18;99945.25;;;30.37;53.33
49759;BME280;70329;45.524;10.194;2023-07-29T10:45:36;99939.69;;;30.16;51.64
49759;BME280;70329;45.524;10.194;2023-07-29T10:48:11;99933.56;;;30.24;51.39
49759;BME280;70329;45.524;10.194;2023-07-29T10:50:38;99931.00;;;30.51;51.78
49759;BME280;70329;45.524;10.194;2023-07-29T10:53:05;99935.09;;;30.43;54.31
49759;BME280;70329;45.524;10.194;2023-07-29T10:55:38;99932.22;;;30.46;53.36
49759;BME280;70329;45.524;10.194;2023-07-29T10:58:14;99937.41;;;30.58;54.10
49759;BME280;70329;45.524;10.194;2023-07-29T11:00:44;99930.47;;;30.63;51.53
49759;BME280;70329;45.524;10.194;2023-07-29T11:03:13;99933.59;;;30.79;53.36
49759;BME280;70329;45.524;10.194;2023-07-29T11:05:48;99933.41;;;30.49;51.15
49759;BME280;70329;45.524;10.194;2023-07-29T11:08:30;99936.06;;;30.74;51.18
49759;BME280;70329;45.524;10.194;2023-07-29T11:11:09;99941.06;;;31.03;50.08
49759;BME280;70329;45.524;10.194;2023-07-29T11:13:41;99930.47;;;30.05;53.18
49759;BME280;70329;45.524;10.194;2023-07-29T11:16:19;99930.97;;;29.89;53.33
49759;BME280;70329;45.524;10.194;2023-07-29T11:18:47;99936.38;;;30.28;55.07
49759;BME280;70329;45.524;10.194;2023-07-29T11:21:17;99926.34;;;30.75;52.89
49759;BME280;70329;45.524;10.194;2023-07-29T11:23:44;99927.97;;;31.20;52.52
49759;BME280;70329;45.524;10.194;2023-07-29T11:26:10;99917.56;;;31.10;50.14
49759;BME280;70329;45.524;10.194;2023-07-29T11:28:39;99913.53;;;31.48;48.75
49759;BME280;70329;45.524;10.194;2023-07-29T11:31:06;99912.84;;;31.71;48.03
49759;BME280;70329;45.524;10.194;2023-07-29T11:33:31;99923.22;;;31.44;48.63
49759;BME280;70329;45.524;10.194;2023-07-29T11:35:58;99916.13;;;30.88;52.02
49759;BME280;70329;45.524;10.194;2023-07-29T11:38:25;99912.75;;;30.63;52.34
49759;BME280;70329;45.524;10.194;2023-07-29T11:40:58;99915.41;;;30.25;53.32
49759;BME280;70329;45.524;10.194;2023-07-29T11:43:23;99909.72;;;29.56;55.85
49759;BME280;70329;45.524;10.194;2023-07-29T11:45:49;99924.56;;;29.71;55.82
49759;BME280;70329;45.524;10.194;2023-07-29T11:48:14;99912.53;;;30.32;53.72
49759;BME280;70329;45.524;10.194;2023-07-29T11:50:40;99914.91;;;30.89;52.34
49759;BME280;70329;45.524;10.194;2023-07-29T11:53:05;99908.53;;;31.22;51.70
49759;BME280;70329;45.524;10.194;2023-07-29T11:55:33;99917.13;;;31.11;49.52
49759;BME280;70329;45.524;10.194;2023-07-29T11:57:58;99906.56;;;30.75;49.58
49759;BME280;70329;45.524;10.194;2023-07-29T12:00:31;99899.16;;;30.88;51.38
49759;BME280;70329;45.524;10.194;2023-07-29T12:02:58;99897.94;;;30.44;52.38
49759;BME280;70329;45.524;10.194;2023-07-29T12:05:26;99897.44;;;31.04;52.13
49759;BME280;70329;45.524;10.194;2023-07-29T12:07:52;99886.88;;;31.42;52.55
49759;BME280;70329;45.524;10.194;2023-07-29T12:10:20;99891.28;;;31.77;49.75
49759;BME280;70329;45.524;10.194;2023-07-29T12:12:48;99891.09;;;31.91;49.69
49759;BME280;70329;45.524;10.194;2023-07-29T12:15:23;99893.72;;;31.79;49.68
49759;BME280;70329;45.524;10.194;2023-07-29T12:17:48;99888.19;;;31.68;49.18
49759;BME280;70329;45.524;10.194;2023-07-29T12:20:14;99899.00;;;31.43;50.27
49759;BME280;70329;45.524;10.194;2023-07-29T12:22:39;99886.63;;;31.63;48.64
49759;BME280;70329;45.524;10.194;2023-07-29T12:25:05;99880.75;;;31.78;49.33
49759;BME280;70329;45.524;10.194;2023-07-29T12:27:31;99872.16;;;31.88;49.12
49759;BME280;70329;45.524;10.194;2023-07-29T12:29:57;99873.69;;;31.93;50.38
49759;BME280;70329;45.524;10.194;2023-07-29T12:32:25;99868.47;;;31.61;49.38
49759;BME280;70329;45.524;10.194;2023-07-29T12:34:53;99867.22;;;31.92;47.09
49759;BME280;70329;45.524;10.194;2023-07-29T12:37:18;99860.19;;;32.04;45.23
49759;BME280;70329;45.524;10.194;2023-07-29T12:39:44;99863.53;;;31.95;47.24
49759;BME280;70329;45.524;10.194;2023-07-29T12:42:09;99862.31;;;32.23;45.85
49759;BME280;70329;45.524;10.194;2023-07-29T12:44:36;99861.66;;;32.39;45.73
49759;BME280;70329;45.524;10.194;2023-07-29T12:47:03;99859.84;;;32.25;45.94
49759;BME280;70329;45.524;10.194;2023-07-29T12:49:30;99855.16;;;31.88;47.03
49759;BME280;70329;45.524;10.194;2023-07-29T12:51:56;99862.84;;;31.24;48.77
49759;BME280;70329;45.524;10.194;2023-07-29T12:54:21;99852.66;;;31.30;47.74